sensor_id;sensor_type;location;lat;lon;timestamp;P1;durP1;ratioP1;P2;durP2;ratioP2
18917;SDS011;9591;52.742;13.650;2023-05-07T00:02:14;12.73;;;7.87;;
18917;SDS011;9591;52.742;13.650;2023-05-07T00:05:01;12.13;;;8.03;;
18917;SDS011;9591;52.742;13.650;2023-05-07T00:07:48;11.47;;;7.20;;
18917;SDS011;9591;52.742;13.650;2023-05-07T00:10:35;13.67;;;8.07;;
18917;SDS011;9591;52.742;13.650;2023-05-07T00:13:22;15.27;;;8.57;;
18917;SDS011;9591;52.742;13.650;2023-05-07T00:16:10;11.97;;;7.90;;
18917;SDS011;9591;52.742;13.650;2023-05-07T00:18:57;14.10;;;8.30;;
18917;SDS011;9591;52.742;13.650;2023-05-07T00:21:44;12.43;;;7.50;;
18917;SDS011;9591;52.742;13.650;2023-05-07T00:24:32;12.53;;;8.27;;
18917;SDS011;9591;52.742;13.650;2023-05-07T00:27:18;14.63;;;8.67;;
18917;SDS011;9591;52.742;13.650;2023-05-07T00:30:05;12.60;;;8.67;;
18917;SDS011;9591;52.742;13.650;2023-05-07T00:32:55;12.73;;;8.33;;
18917;SDS011;9591;52.742;13.650;2023-05-07T00:35:41;14.93;;;7.57;;
18917;SDS011;9591;52.742;13.650;2023-05-07T00:38:28;14.30;;;7.70;;
18917;SDS011;9591;52.742;13.650;2023-05-07T00:41:15;14.73;;;7.77;;
18917;SDS011;9591;52.742;13.650;2023-05-07T00:44:02;17.27;;;8.20;;
18917;SDS011;9591;52.742;13.650;2023-05-07T00:46:49;14.07;;;8.83;;
18917;SDS011;9591;52.742;13.650;2023-05-07T00:49:39;15.90;;;8.13;;
18917;SDS011;9591;52.742;13.650;2023-05-07T00:52:27;16.27;;;8.33;;
18917;SDS011;9591;52.742;13.650;2023-05-07T00:55:15;18.00;;;8.77;;
18917;SDS011;9591;52.742;13.650;2023-05-07T00:58:02;24.27;;;9.20;;
18917;SDS011;9591;52.742;13.650;2023-05-07T01:00:49;14.80;;;8.03;;
18917;SDS011;9591;52.742;13.650;2023-05-07T01:03:36;12.63;;;8.33;;
18917;SDS011;9591;52.742;13.650;2023-05-07T01:06:24;14.00;;;7.27;;
18917;SDS011;9591;52.742;13.650;2023-05-07T01:09:13;11.87;;;7.57;;
18917;SDS011;9591;52.742;13.650;2023-05-07T01:12:00;12.63;;;8.20;;
18917;SDS011;9591;52.742;13.650;2023-05-07T01:14:47;16.40;;;8.87;;
18917;SDS011;9591;52.742;13.650;2023-05-07T01:17:35;17.93;;;8.77;;
18917;SDS011;9591;52.742;13.650;2023-05-07T01:20:27;12.67;;;8.67;;
18917;SDS011;9591;52.742;13.650;2023-05-07T01:23:16;13.80;;;8.80;;
18917;SDS011;9591;52.742;13.650;2023-05-07T01:26:04;17.10;;;9.07;;
18917;SDS011;9591;52.742;13.650;2023-05-07T01:28:52;18.20;;;9.37;;
18917;SDS011;9591;52.742;13.650;2023-05-07T01:31:39;15.63;;;8.43;;
18917;SDS011;9591;52.742;13.650;2023-05-07T01:34:28;14.97;;;8.40;;
18917;SDS011;9591;52.742;13.650;2023-05-07T01:37:20;16.40;;;8.63;;
18917;SDS011;9591;52.742;13.650;2023-05-07T01:40:30;14.83;;;8.43;;
18917;SDS011;9591;52.742;13.650;2023-05-07T01:43:17;18.20;;;8.87;;
18917;SDS011;9591;52.742;13.650;2023-05-07T01:46:04;15.90;;;9.40;;
18917;SDS011;9591;52.742;13.650;2023-05-07T01:48:52;14.80;;;8.13;;
18917;SDS011;9591;52.742;13.650;2023-05-07T01:51:42;14.73;;;8.63;;
18917;SDS011;9591;52.742;13.650;2023-05-07T01:54:30;18.23;;;9.07;;
18917;SDS011;9591;52.742;13.650;2023-05-07T01:57:19;13.93;;;8.17;;
18917;SDS011;9591;52.742;13.650;2023-05-07T02:00:07;15.17;;;8.90;;
18917;SDS011;9591;52.742;13.650;2023-05-07T02:03:01;14.70;;;9.80;;
18917;SDS011;9591;52.742;13.650;2023-05-07T02:05:57;14.70;;;9.07;;
18917;SDS011;9591;52.742;13.650;2023-05-07T02:08:51;15.07;;;9.73;;
18917;SDS011;9591;52.742;13.650;2023-05-07T02:11:37;17.23;;;9.70;;
18917;SDS011;9591;52.742;13.650;2023-05-07T02:14:26;18.40;;;9.53;;
18917;SDS011;9591;52.742;13.650;2023-05-07T02:17:14;16.93;;;9.50;;
18917;SDS011;9591;52.742;13.650;2023-05-07T02:20:01;21.17;;;10.57;;
18917;SDS011;9591;52.742;13.650;2023-05-07T02:22:49;15.50;;;9.30;;
18917;SDS011;9591;52.742;13.650;2023-05-07T02:25:35;17.97;;;9.27;;
18917;SDS011;9591;52.742;13.650;2023-05-07T02:28:22;15.67;;;9.23;;
18917;SDS011;9591;52.742;13.650;2023-05-07T02:31:17;14.37;;;9.30;;
18917;SDS011;9591;52.742;13.650;2023-05-07T02:34:04;15.43;;;9.87;;
18917;SDS011;9591;52.742;13.650;2023-05-07T02:36:51;13.10;;;8.20;;
18917;SDS011;9591;52.742;13.650;2023-05-07T02:39:41;12.63;;;8.23;;
18917;SDS011;9591;52.742;13.650;2023-05-07T02:42:28;14.47;;;8.67;;
18917;SDS011;9591;52.742;13.650;2023-05-07T02:45:15;13.57;;;8.47;;
18917;SDS011;9591;52.742;13.650;2023-05-07T02:48:04;14.57;;;8.63;;
18917;SDS011;9591;52.742;13.650;2023-05-07T02:50:52;11.60;;;7.37;;
18917;SDS011;9591;52.742;13.650;2023-05-07T02:53:39;12.63;;;7.90;;
18917;SDS011;9591;52.742;13.650;2023-05-07T02:56:27;15.30;;;7.80;;
18917;SDS011;9591;52.742;13.650;2023-05-07T02:59:14;12.03;;;7.40;;
18917;SDS011;9591;52.742;13.650;2023-05-07T03:02:00;15.10;;;7.67;;
18917;SDS011;9591;52.742;13.650;2023-05-07T03:04:48;13.40;;;8.13;;
18917;SDS011;9591;52.742;13.650;2023-05-07T03:07:35;14.57;;;8.33;;
18917;SDS011;9591;52.742;13.650;2023-05-07T03:10:23;13.60;;;8.17;;
18917;SDS011;9591;52.742;13.650;2023-05-07T03:13:09;15.93;;;7.93;;
18917;SDS011;9591;52.742;13.650;2023-05-07T03:15:57;14.07;;;7.33;;
18917;SDS011;9591;52.742;13.650;2023-05-07T03:18:44;15.57;;;7.87;;
18917;SDS011;9591;52.742;13.650;2023-05-07T03:21:32;13.97;;;8.03;;
18917;SDS011;9591;52.742;13.650;2023-05-07T03:24:19;10.80;;;7.50;;
18917;SDS011;9591;52.742;13.650;2023-05-07T03:27:06;11.87;;;7.30;;
18917;SDS011;9591;52.742;13.650;2023-05-07T03:29:53;18.07;;;8.40;;
18917;SDS011;9591;52.742;13.650;2023-05-07T03:32:40;15.00;;;8.40;;
18917;SDS011;9591;52.742;13.650;2023-05-07T03:35:29;14.20;;;8.00;;
18917;SDS011;9591;52.742;13.650;2023-05-07T03:38:18;12.30;;;7.87;;
18917;SDS011;9591;52.742;13.650;2023-05-07T03:41:05;15.10;;;8.10;;
18917;SDS011;9591;52.742;13.650;2023-05-07T03:43:51;14.37;;;8.70;;
18917;SDS011;9591;52.742;13.650;2023-05-07T03:46:38;14.83;;;8.47;;
18917;SDS011;9591;52.742;13.650;2023-05-07T03:49:28;18.40;;;8.27;;
18917;SDS011;9591;52.742;13.650;2023-05-07T03:52:15;14.03;;;8.07;;
18917;SDS011;9591;52.742;13.650;2023-05-07T03:55:03;15.43;;;8.80;;
18917;SDS011;9591;52.742;13.650;2023-05-07T03:57:52;16.37;;;8.63;;
18917;SDS011;9591;52.742;13.650;2023-05-07T04:00:38;17.43;;;9.13;;
18917;SDS011;9591;52.742;13.650;2023-05-07T04:03:40;16.07;;;8.57;;
18917;SDS011;9591;52.742;13.650;2023-05-07T04:06:27;14.53;;;8.80;;
18917;SDS011;9591;52.742;13.650;2023-05-07T04:09:14;17.30;;;8.80;;
18917;SDS011;9591;52.742;13.650;2023-05-07T04:12:04;13.90;;;8.10;;
18917;SDS011;9591;52.742;13.650;2023-05-07T04:14:52;13.37;;;8.87;;
18917;SDS011;9591;52.742;13.650;2023-05-07T04:17:41;18.47;;;8.70;;
18917;SDS011;9591;52.742;13.650;2023-05-07T04:20:30;15.17;;;8.40;;
18917;SDS011;9591;52.742;13.650;2023-05-07T04:23:23;12.20;;;8.83;;
18917;SDS011;9591;52.742;13.650;2023-05-07T04:26:11;16.17;;;8.87;;
18917;SDS011;9591;52.742;13.650;2023-05-07T04:29:01;15.97;;;8.63;;
18917;SDS011;9591;52.742;13.650;2023-05-07T04:31:51;14.67;;;8.23;;
18917;SDS011;9591;52.742;13.650;2023-05-07T04:34:38;17.37;;;8.93;;
18917;SDS011;9591;52.742;13.650;2023-05-07T04:37:25;16.80;;;9.00;;
18917;SDS011;9591;52.742;13.650;2023-05-07T04:40:12;15.13;;;8.03;;
18917;SDS011;9591;52.742;13.650;2023-05-07T04:43:00;15.40;;;8.37;;
18917;SDS011;9591;52.742;13.650;2023-05-07T04:45:51;16.63;;;9.23;;
18917;SDS011;9591;52.742;13.650;2023-05-07T04:48:41;11.67;;;7.90;;
18917;SDS011;9591;52.742;13.650;2023-05-07T04:51:28;15.37;;;8.17;;
18917;SDS011;9591;52.742;13.650;2023-05-07T04:54:15;11.63;;;7.50;;
18917;SDS011;9591;52.742;13.650;2023-05-07T04:57:03;12.57;;;8.33;;
18917;SDS011;9591;52.742;13.650;2023-05-07T04:59:50;10.83;;;6.77;;
18917;SDS011;9591;52.742;13.650;2023-05-07T05:02:38;12.43;;;7.67;;
18917;SDS011;9591;52.742;13.650;2023-05-07T05:05:25;10.10;;;7.50;;
18917;SDS011;9591;52.742;13.650;2023-05-07T05:08:13;11.87;;;7.07;;
18917;SDS011;9591;52.742;13.650;2023-05-07T05:11:00;10.90;;;7.63;;
18917;SDS011;9591;52.742;13.650;2023-05-07T05:13:49;12.50;;;7.77;;
18917;SDS011;9591;52.742;13.650;2023-05-07T05:16:38;13.37;;;8.00;;
18917;SDS011;9591;52.742;13.650;2023-05-07T05:19:26;15.13;;;8.90;;
18917;SDS011;9591;52.742;13.650;2023-05-07T05:22:14;13.97;;;8.20;;
18917;SDS011;9591;52.742;13.650;2023-05-07T05:25:01;17.63;;;8.67;;
18917;SDS011;9591;52.742;13.650;2023-05-07T05:27:47;15.03;;;8.30;;
18917;SDS011;9591;52.742;13.650;2023-05-07T05:30:34;13.70;;;8.07;;
18917;SDS011;9591;52.742;13.650;2023-05-07T05:33:21;11.00;;;7.20;;
18917;SDS011;9591;52.742;13.650;2023-05-07T05:36:10;10.47;;;6.93;;
18917;SDS011;9591;52.742;13.650;2023-05-07T05:38:58;12.70;;;7.40;;
18917;SDS011;9591;52.742;13.650;2023-05-07T05:41:46;11.70;;;7.70;;
18917;SDS011;9591;52.742;13.650;2023-05-07T05:44:33;11.20;;;7.07;;
18917;SDS011;9591;52.742;13.650;2023-05-07T05:47:20;10.20;;;6.67;;
18917;SDS011;9591;52.742;13.650;2023-05-07T05:50:07;10.00;;;6.50;;
18917;SDS011;9591;52.742;13.650;2023-05-07T05:52:56;10.70;;;6.83;;
18917;SDS011;9591;52.742;13.650;2023-05-07T05:55:45;10.57;;;6.73;;
18917;SDS011;9591;52.742;13.650;2023-05-07T05:58:32;12.07;;;6.63;;
18917;SDS011;9591;52.742;13.650;2023-05-07T06:01:22;16.07;;;5.80;;
18917;SDS011;9591;52.742;13.650;2023-05-07T06:04:11;12.40;;;6.27;;
18917;SDS011;9591;52.742;13.650;2023-05-07T06:06:58;9.43;;;6.30;;
18917;SDS011;9591;52.742;13.650;2023-05-07T06:09:46;11.53;;;6.33;;
18917;SDS011;9591;52.742;13.650;2023-05-07T06:12:33;9.13;;;6.57;;
18917;SDS011;9591;52.742;13.650;2023-05-07T06:15:20;11.60;;;7.30;;
18917;SDS011;9591;52.742;13.650;2023-05-07T06:18:08;13.43;;;7.00;;
18917;SDS011;9591;52.742;13.650;2023-05-07T06:20:55;11.93;;;6.73;;
18917;SDS011;9591;52.742;13.650;2023-05-07T06:23:45;11.27;;;6.30;;
18917;SDS011;9591;52.742;13.650;2023-05-07T06:26:33;12.30;;;6.83;;
18917;SDS011;9591;52.742;13.650;2023-05-07T06:29:21;10.83;;;6.30;;
18917;SDS011;9591;52.742;13.650;2023-05-07T06:32:08;10.73;;;6.77;;
18917;SDS011;9591;52.742;13.650;2023-05-07T06:34:57;9.33;;;6.80;;
18917;SDS011;9591;52.742;13.650;2023-05-07T06:37:45;11.73;;;6.60;;
18917;SDS011;9591;52.742;13.650;2023-05-07T06:40:37;11.67;;;5.57;;
18917;SDS011;9591;52.742;13.650;2023-05-07T06:43:26;9.40;;;6.40;;
18917;SDS011;9591;52.742;13.650;2023-05-07T06:46:29;8.27;;;5.87;;
18917;SDS011;9591;52.742;13.650;2023-05-07T06:49:16;6.70;;;5.60;;
18917;SDS011;9591;52.742;13.650;2023-05-07T06:52:06;11.20;;;6.07;;
18917;SDS011;9591;52.742;13.650;2023-05-07T06:54:53;8.67;;;4.93;;
18917;SDS011;9591;52.742;13.650;2023-05-07T06:57:42;11.13;;;6.10;;
18917;SDS011;9591;52.742;13.650;2023-05-07T07:00:30;9.47;;;5.17;;
18917;SDS011;9591;52.742;13.650;2023-05-07T07:03:17;9.43;;;5.53;;
18917;SDS011;9591;52.742;13.650;2023-05-07T07:06:04;7.70;;;5.13;;
18917;SDS011;9591;52.742;13.650;2023-05-07T07:08:52;6.47;;;5.03;;
18917;SDS011;9591;52.742;13.650;2023-05-07T07:11:38;6.53;;;5.00;;
18917;SDS011;9591;52.742;13.650;2023-05-07T07:14:26;6.30;;;4.80;;
18917;SDS011;9591;52.742;13.650;2023-05-07T07:17:14;6.10;;;4.47;;
18917;SDS011;9591;52.742;13.650;2023-05-07T07:20:01;5.40;;;4.80;;
18917;SDS011;9591;52.742;13.650;2023-05-07T07:22:48;8.17;;;5.30;;
18917;SDS011;9591;52.742;13.650;2023-05-07T07:25:35;6.23;;;3.67;;
18917;SDS011;9591;52.742;13.650;2023-05-07T07:28:22;7.87;;;4.30;;
18917;SDS011;9591;52.742;13.650;2023-05-07T07:31:09;8.80;;;4.80;;
18917;SDS011;9591;52.742;13.650;2023-05-07T07:33:58;8.67;;;4.77;;
18917;SDS011;9591;52.742;13.650;2023-05-07T07:36:45;5.17;;;4.23;;
18917;SDS011;9591;52.742;13.650;2023-05-07T07:39:35;4.57;;;3.70;;
18917;SDS011;9591;52.742;13.650;2023-05-07T07:42:25;5.50;;;4.03;;
18917;SDS011;9591;52.742;13.650;2023-05-07T07:45:11;5.67;;;4.03;;
18917;SDS011;9591;52.742;13.650;2023-05-07T07:48:02;5.13;;;3.00;;
18917;SDS011;9591;52.742;13.650;2023-05-07T07:50:55;10.37;;;3.73;;
18917;SDS011;9591;52.742;13.650;2023-05-07T07:53:41;4.93;;;3.53;;
18917;SDS011;9591;52.742;13.650;2023-05-07T07:56:28;6.30;;;3.70;;
18917;SDS011;9591;52.742;13.650;2023-05-07T07:59:15;6.17;;;3.50;;
18917;SDS011;9591;52.742;13.650;2023-05-07T08:02:06;4.67;;;3.60;;
18917;SDS011;9591;52.742;13.650;2023-05-07T08:04:54;5.20;;;3.13;;
18917;SDS011;9591;52.742;13.650;2023-05-07T08:07:42;10.83;;;3.30;;
18917;SDS011;9591;52.742;13.650;2023-05-07T08:10:31;4.90;;;3.30;;
18917;SDS011;9591;52.742;13.650;2023-05-07T08:13:25;5.13;;;3.30;;
18917;SDS011;9591;52.742;13.650;2023-05-07T08:16:13;4.70;;;2.73;;
18917;SDS011;9591;52.742;13.650;2023-05-07T08:19:00;8.60;;;3.23;;
18917;SDS011;9591;52.742;13.650;2023-05-07T08:21:50;5.17;;;3.40;;
18917;SDS011;9591;52.742;13.650;2023-05-07T08:24:39;6.47;;;3.23;;
18917;SDS011;9591;52.742;13.650;2023-05-07T08:27:26;8.23;;;3.20;;
18917;SDS011;9591;52.742;13.650;2023-05-07T08:30:14;4.33;;;3.03;;
18917;SDS011;9591;52.742;13.650;2023-05-07T08:33:02;8.50;;;2.93;;
18917;SDS011;9591;52.742;13.650;2023-05-07T08:35:49;6.07;;;3.00;;
18917;SDS011;9591;52.742;13.650;2023-05-07T08:38:36;5.77;;;3.03;;
18917;SDS011;9591;52.742;13.650;2023-05-07T08:41:24;4.07;;;3.17;;
18917;SDS011;9591;52.742;13.650;2023-05-07T08:44:11;5.97;;;3.40;;
18917;SDS011;9591;52.742;13.650;2023-05-07T08:47:00;4.87;;;3.20;;
18917;SDS011;9591;52.742;13.650;2023-05-07T08:49:49;3.10;;;2.80;;
18917;SDS011;9591;52.742;13.650;2023-05-07T08:52:37;6.17;;;2.90;;
18917;SDS011;9591;52.742;13.650;2023-05-07T08:55:26;5.43;;;2.93;;
18917;SDS011;9591;52.742;13.650;2023-05-07T08:58:16;3.10;;;2.70;;
18917;SDS011;9591;52.742;13.650;2023-05-07T09:01:03;4.00;;;2.07;;
18917;SDS011;9591;52.742;13.650;2023-05-07T09:03:54;2.87;;;2.57;;
18917;SDS011;9591;52.742;13.650;2023-05-07T09:06:42;3.30;;;2.20;;
18917;SDS011;9591;52.742;13.650;2023-05-07T09:09:32;2.67;;;2.43;;
18917;SDS011;9591;52.742;13.650;2023-05-07T09:12:21;2.33;;;1.97;;
18917;SDS011;9591;52.742;13.650;2023-05-07T09:15:10;3.17;;;2.60;;
18917;SDS011;9591;52.742;13.650;2023-05-07T09:17:59;4.47;;;2.60;;
18917;SDS011;9591;52.742;13.650;2023-05-07T09:20:48;4.73;;;2.83;;
18917;SDS011;9591;52.742;13.650;2023-05-07T09:23:37;5.93;;;2.50;;
18917;SDS011;9591;52.742;13.650;2023-05-07T09:26:25;3.20;;;2.60;;
18917;SDS011;9591;52.742;13.650;2023-05-07T09:29:15;3.53;;;2.73;;
18917;SDS011;9591;52.742;13.650;2023-05-07T09:32:05;4.27;;;2.53;;
18917;SDS011;9591;52.742;13.650;2023-05-07T09:34:52;2.70;;;2.33;;
18917;SDS011;9591;52.742;13.650;2023-05-07T09:37:41;3.30;;;2.43;;
18917;SDS011;9591;52.742;13.650;2023-05-07T09:40:29;2.90;;;2.27;;
18917;SDS011;9591;52.742;13.650;2023-05-07T09:43:22;3.17;;;2.17;;
18917;SDS011;9591;52.742;13.650;2023-05-07T09:46:14;2.97;;;1.90;;
18917;SDS011;9591;52.742;13.650;2023-05-07T09:49:10;3.40;;;2.70;;
18917;SDS011;9591;52.742;13.650;2023-05-07T09:52:05;5.83;;;2.80;;
18917;SDS011;9591;52.742;13.650;2023-05-07T09:54:57;2.87;;;2.40;;
18917;SDS011;9591;52.742;13.650;2023-05-07T09:57:48;3.53;;;2.40;;
18917;SDS011;9591;52.742;13.650;2023-05-07T10:00:37;3.80;;;2.13;;
18917;SDS011;9591;52.742;13.650;2023-05-07T10:03:31;3.90;;;2.73;;
18917;SDS011;9591;52.742;13.650;2023-05-07T10:06:24;2.80;;;2.50;;
18917;SDS011;9591;52.742;13.650;2023-05-07T10:09:11;6.33;;;3.00;;
18917;SDS011;9591;52.742;13.650;2023-05-07T10:12:00;3.13;;;2.30;;
18917;SDS011;9591;52.742;13.650;2023-05-07T10:14:47;3.67;;;2.57;;
18917;SDS011;9591;52.742;13.650;2023-05-07T10:17:37;3.57;;;2.20;;
18917;SDS011;9591;52.742;13.650;2023-05-07T10:20:25;2.37;;;2.17;;
18917;SDS011;9591;52.742;13.650;2023-05-07T10:23:16;2.40;;;2.10;;
18917;SDS011;9591;52.742;13.650;2023-05-07T10:26:13;10.37;;;2.30;;
18917;SDS011;9591;52.742;13.650;2023-05-07T10:29:02;4.20;;;2.70;;
18917;SDS011;9591;52.742;13.650;2023-05-07T10:31:55;8.70;;;2.80;;
18917;SDS011;9591;52.742;13.650;2023-05-07T10:34:47;4.20;;;2.37;;
18917;SDS011;9591;52.742;13.650;2023-05-07T10:37:37;3.17;;;2.43;;
18917;SDS011;9591;52.742;13.650;2023-05-07T10:40:25;2.87;;;2.37;;
18917;SDS011;9591;52.742;13.650;2023-05-07T10:43:13;4.70;;;2.47;;
18917;SDS011;9591;52.742;13.650;2023-05-07T10:46:11;3.63;;;2.20;;
18917;SDS011;9591;52.742;13.650;2023-05-07T10:49:07;2.90;;;1.80;;
18917;SDS011;9591;52.742;13.650;2023-05-07T10:52:11;2.53;;;2.33;;
18917;SDS011;9591;52.742;13.650;2023-05-07T10:55:20;4.73;;;2.50;;
18917;SDS011;9591;52.742;13.650;2023-05-07T10:58:27;2.87;;;2.07;;
18917;SDS011;9591;52.742;13.650;2023-05-07T11:11:48;2.73;;;2.20;;
18917;SDS011;9591;52.742;13.650;2023-05-07T11:15:02;4.80;;;2.23;;
18917;SDS011;9591;52.742;13.650;2023-05-07T11:17:52;3.10;;;2.10;;
18917;SDS011;9591;52.742;13.650;2023-05-07T11:20:46;2.40;;;2.20;;
18917;SDS011;9591;52.742;13.650;2023-05-07T11:24:03;2.50;;;2.27;;
18917;SDS011;9591;52.742;13.650;2023-05-07T11:27:20;3.50;;;2.77;;
18917;SDS011;9591;52.742;13.650;2023-05-07T11:30:17;3.27;;;2.27;;
18917;SDS011;9591;52.742;13.650;2023-05-07T11:33:04;3.13;;;2.43;;
18917;SDS011;9591;52.742;13.650;2023-05-07T11:35:52;2.53;;;2.33;;
18917;SDS011;9591;52.742;13.650;2023-05-07T11:38:44;4.80;;;2.17;;
18917;SDS011;9591;52.742;13.650;2023-05-07T11:41:34;3.90;;;2.23;;
18917;SDS011;9591;52.742;13.650;2023-05-07T11:44:22;2.90;;;2.47;;
18917;SDS011;9591;52.742;13.650;2023-05-07T11:47:10;2.37;;;2.17;;
18917;SDS011;9591;52.742;13.650;2023-05-07T11:49:57;2.50;;;2.30;;
18917;SDS011;9591;52.742;13.650;2023-05-07T11:52:50;4.70;;;2.20;;
18917;SDS011;9591;52.742;13.650;2023-05-07T11:55:38;4.90;;;2.00;;
18917;SDS011;9591;52.742;13.650;2023-05-07T11:58:24;2.87;;;2.30;;
18917;SDS011;9591;52.742;13.650;2023-05-07T12:01:12;2.77;;;2.47;;
18917;SDS011;9591;52.742;13.650;2023-05-07T12:04:02;3.43;;;2.30;;
18917;SDS011;9591;52.742;13.650;2023-05-07T12:06:53;2.30;;;2.10;;
18917;SDS011;9591;52.742;13.650;2023-05-07T12:09:41;3.43;;;2.40;;
18917;SDS011;9591;52.742;13.650;2023-05-07T12:12:28;3.43;;;2.23;;
18917;SDS011;9591;52.742;13.650;2023-05-07T12:15:15;3.20;;;2.37;;
18917;SDS011;9591;52.742;13.650;2023-05-07T12:18:02;4.27;;;2.13;;
18917;SDS011;9591;52.742;13.650;2023-05-07T12:20:50;3.70;;;2.37;;
18917;SDS011;9591;52.742;13.650;2023-05-07T12:23:37;3.83;;;2.30;;
18917;SDS011;9591;52.742;13.650;2023-05-07T12:26:24;3.40;;;2.70;;
18917;SDS011;9591;52.742;13.650;2023-05-07T12:29:11;2.20;;;2.00;;
18917;SDS011;9591;52.742;13.650;2023-05-07T12:31:58;3.20;;;2.27;;
18917;SDS011;9591;52.742;13.650;2023-05-07T12:34:45;3.43;;;2.50;;
18917;SDS011;9591;52.742;13.650;2023-05-07T12:37:34;2.27;;;2.00;;
18917;SDS011;9591;52.742;13.650;2023-05-07T12:40:21;2.57;;;2.30;;
18917;SDS011;9591;52.742;13.650;2023-05-07T12:43:14;5.53;;;2.40;;
18917;SDS011;9591;52.742;13.650;2023-05-07T12:46:03;4.27;;;2.10;;
18917;SDS011;9591;52.742;13.650;2023-05-07T12:48:51;2.77;;;2.57;;
18917;SDS011;9591;52.742;13.650;2023-05-07T12:51:39;2.57;;;2.37;;
18917;SDS011;9591;52.742;13.650;2023-05-07T12:54:31;2.63;;;2.20;;
18917;SDS011;9591;52.742;13.650;2023-05-07T12:57:18;2.70;;;2.33;;
18917;SDS011;9591;52.742;13.650;2023-05-07T13:00:07;3.10;;;2.40;;
18917;SDS011;9591;52.742;13.650;2023-05-07T13:02:54;2.53;;;2.30;;
18917;SDS011;9591;52.742;13.650;2023-05-07T13:05:41;3.23;;;2.00;;
18917;SDS011;9591;52.742;13.650;2023-05-07T13:08:29;3.03;;;2.20;;
18917;SDS011;9591;52.742;13.650;2023-05-07T13:11:18;2.63;;;2.30;;
18917;SDS011;9591;52.742;13.650;2023-05-07T13:14:05;8.13;;;2.30;;
18917;SDS011;9591;52.742;13.650;2023-05-07T13:16:53;4.70;;;2.40;;
18917;SDS011;9591;52.742;13.650;2023-05-07T13:19:39;2.87;;;2.30;;
18917;SDS011;9591;52.742;13.650;2023-05-07T13:22:26;3.07;;;2.30;;
18917;SDS011;9591;52.742;13.650;2023-05-07T13:25:13;5.57;;;2.17;;
18917;SDS011;9591;52.742;13.650;2023-05-07T13:28:01;3.27;;;2.10;;
18917;SDS011;9591;52.742;13.650;2023-05-07T13:30:55;5.43;;;2.73;;
18917;SDS011;9591;52.742;13.650;2023-05-07T13:33:42;4.37;;;2.50;;
18917;SDS011;9591;52.742;13.650;2023-05-07T13:36:29;9.07;;;3.03;;
18917;SDS011;9591;52.742;13.650;2023-05-07T13:39:18;3.50;;;2.10;;
18917;SDS011;9591;52.742;13.650;2023-05-07T13:42:05;3.33;;;2.30;;
18917;SDS011;9591;52.742;13.650;2023-05-07T13:44:53;3.63;;;2.17;;
18917;SDS011;9591;52.742;13.650;2023-05-07T13:47:40;4.50;;;2.43;;
18917;SDS011;9591;52.742;13.650;2023-05-07T13:50:26;3.57;;;2.17;;
18917;SDS011;9591;52.742;13.650;2023-05-07T13:53:15;2.30;;;2.10;;
18917;SDS011;9591;52.742;13.650;2023-05-07T13:56:03;3.33;;;2.00;;
18917;SDS011;9591;52.742;13.650;2023-05-07T13:58:50;3.90;;;2.03;;
18917;SDS011;9591;52.742;13.650;2023-05-07T14:01:46;6.13;;;2.00;;
18917;SDS011;9591;52.742;13.650;2023-05-07T14:04:33;2.27;;;1.90;;
18917;SDS011;9591;52.742;13.650;2023-05-07T14:07:20;2.93;;;1.83;;
18917;SDS011;9591;52.742;13.650;2023-05-07T14:10:07;1.70;;;1.60;;
18917;SDS011;9591;52.742;13.650;2023-05-07T14:12:55;3.90;;;2.00;;
18917;SDS011;9591;52.742;13.650;2023-05-07T14:15:41;2.40;;;1.57;;
18917;SDS011;9591;52.742;13.650;2023-05-07T14:18:32;2.00;;;1.80;;
18917;SDS011;9591;52.742;13.650;2023-05-07T14:21:22;3.37;;;2.30;;
18917;SDS011;9591;52.742;13.650;2023-05-07T14:24:09;3.33;;;1.80;;
18917;SDS011;9591;52.742;13.650;2023-05-07T14:26:56;1.70;;;1.60;;
18917;SDS011;9591;52.742;13.650;2023-05-07T14:29:42;4.53;;;1.90;;
18917;SDS011;9591;52.742;13.650;2023-05-07T14:32:31;1.70;;;1.60;;
18917;SDS011;9591;52.742;13.650;2023-05-07T14:35:19;3.83;;;1.70;;
18917;SDS011;9591;52.742;13.650;2023-05-07T14:38:06;3.37;;;1.80;;
18917;SDS011;9591;52.742;13.650;2023-05-07T14:40:53;3.27;;;1.87;;
18917;SDS011;9591;52.742;13.650;2023-05-07T14:43:41;1.60;;;1.50;;
18917;SDS011;9591;52.742;13.650;2023-05-07T14:46:27;1.70;;;1.60;;
18917;SDS011;9591;52.742;13.650;2023-05-07T14:49:14;2.03;;;1.73;;
18917;SDS011;9591;52.742;13.650;2023-05-07T14:52:04;1.70;;;1.60;;
18917;SDS011;9591;52.742;13.650;2023-05-07T14:54:51;1.60;;;1.40;;
18917;SDS011;9591;52.742;13.650;2023-05-07T14:57:38;1.73;;;1.63;;
18917;SDS011;9591;52.742;13.650;2023-05-07T15:00:25;3.33;;;1.60;;
18917;SDS011;9591;52.742;13.650;2023-05-07T15:03:12;1.50;;;1.40;;
18917;SDS011;9591;52.742;13.650;2023-05-07T15:06:01;1.83;;;1.73;;
18917;SDS011;9591;52.742;13.650;2023-05-07T15:08:49;3.27;;;1.37;;
18917;SDS011;9591;52.742;13.650;2023-05-07T15:11:36;2.70;;;1.80;;
18917;SDS011;9591;52.742;13.650;2023-05-07T15:14:24;1.83;;;1.60;;
18917;SDS011;9591;52.742;13.650;2023-05-07T15:17:11;2.93;;;1.60;;
18917;SDS011;9591;52.742;13.650;2023-05-07T15:20:00;1.47;;;1.37;;
18917;SDS011;9591;52.742;13.650;2023-05-07T15:22:47;2.20;;;1.60;;
18917;SDS011;9591;52.742;13.650;2023-05-07T15:25:35;1.57;;;1.47;;
18917;SDS011;9591;52.742;13.650;2023-05-07T15:28:22;1.90;;;1.80;;
18917;SDS011;9591;52.742;13.650;2023-05-07T15:31:12;6.33;;;1.80;;
18917;SDS011;9591;52.742;13.650;2023-05-07T15:33:59;3.67;;;1.70;;
18917;SDS011;9591;52.742;13.650;2023-05-07T15:36:46;1.57;;;1.47;;
18917;SDS011;9591;52.742;13.650;2023-05-07T15:39:33;1.73;;;1.63;;
18917;SDS011;9591;52.742;13.650;2023-05-07T15:42:22;2.30;;;1.80;;
18917;SDS011;9591;52.742;13.650;2023-05-07T15:45:09;5.03;;;1.90;;
18917;SDS011;9591;52.742;13.650;2023-05-07T15:47:56;1.70;;;1.60;;
18917;SDS011;9591;52.742;13.650;2023-05-07T15:50:43;2.13;;;1.63;;
18917;SDS011;9591;52.742;13.650;2023-05-07T15:53:30;4.53;;;2.20;;
18917;SDS011;9591;52.742;13.650;2023-05-07T15:56:18;1.70;;;1.60;;
18917;SDS011;9591;52.742;13.650;2023-05-07T15:59:06;2.50;;;1.57;;
18917;SDS011;9591;52.742;13.650;2023-05-07T16:01:54;5.37;;;1.60;;
18917;SDS011;9591;52.742;13.650;2023-05-07T16:04:41;4.40;;;1.80;;
18917;SDS011;9591;52.742;13.650;2023-05-07T16:07:28;3.23;;;1.50;;
18917;SDS011;9591;52.742;13.650;2023-05-07T16:10:15;1.57;;;1.47;;
18917;SDS011;9591;52.742;13.650;2023-05-07T16:13:02;1.57;;;1.47;;
18917;SDS011;9591;52.742;13.650;2023-05-07T16:15:51;1.90;;;1.60;;
18917;SDS011;9591;52.742;13.650;2023-05-07T16:18:41;2.13;;;1.53;;
18917;SDS011;9591;52.742;13.650;2023-05-07T16:21:28;3.00;;;1.33;;
18917;SDS011;9591;52.742;13.650;2023-05-07T16:24:15;4.03;;;2.00;;
18917;SDS011;9591;52.742;13.650;2023-05-07T16:27:02;1.63;;;1.53;;
18917;SDS011;9591;52.742;13.650;2023-05-07T16:29:50;1.60;;;1.50;;
18917;SDS011;9591;52.742;13.650;2023-05-07T16:32:38;5.80;;;1.53;;
18917;SDS011;9591;52.742;13.650;2023-05-07T16:35:25;2.00;;;1.90;;
18917;SDS011;9591;52.742;13.650;2023-05-07T16:38:12;1.73;;;1.63;;
18917;SDS011;9591;52.742;13.650;2023-05-07T16:40:59;2.87;;;1.67;;
18917;SDS011;9591;52.742;13.650;2023-05-07T16:43:45;1.73;;;1.63;;
18917;SDS011;9591;52.742;13.650;2023-05-07T16:46:32;1.90;;;1.77;;
18917;SDS011;9591;52.742;13.650;2023-05-07T16:49:20;2.90;;;1.60;;
18917;SDS011;9591;52.742;13.650;2023-05-07T16:52:07;1.87;;;1.77;;
18917;SDS011;9591;52.742;13.650;2023-05-07T16:54:54;3.30;;;2.10;;
18917;SDS011;9591;52.742;13.650;2023-05-07T16:57:44;2.83;;;2.00;;
18917;SDS011;9591;52.742;13.650;2023-05-07T17:00:31;2.53;;;1.80;;
18917;SDS011;9591;52.742;13.650;2023-05-07T17:03:33;2.30;;;1.80;;